createdAt,value
2023-02-16T00:02:59.185Z,20.33
2023-02-16T00:06:00.764Z,20.97
2023-02-16T00:09:02.406Z,22.07
2023-02-16T00:12:31.711Z,20.33
2023-02-16T00:15:33.369Z,21.03
2023-02-16T00:18:34.968Z,22.20
2023-02-16T00:21:36.558Z,20.37
2023-02-16T00:24:38.227Z,20.03
2023-02-16T00:27:40.051Z,16.33
2023-02-16T00:30:41.809Z,22.00
2023-02-16T00:33:43.368Z,24.00
2023-02-16T00:36:45.139Z,21.53
2023-02-16T00:39:46.877Z,22.77
2023-02-16T00:42:48.619Z,29.77
2023-02-16T00:45:50.239Z,37.77
2023-02-16T00:48:51.852Z,22.70
2023-02-16T00:51:53.592Z,21.50
2023-02-16T00:54:55.590Z,21.33
2023-02-16T00:58:03.014Z,23.73
2023-02-16T01:01:09.764Z,24.67
2023-02-16T01:04:14.379Z,26.80
2023-02-16T01:07:35.329Z,23.67
2023-02-16T01:10:56.499Z,22.00
2023-02-16T01:13:58.350Z,26.87
2023-02-16T01:16:59.915Z,24.00
2023-02-16T01:20:03.941Z,22.33
2023-02-16T01:23:08.990Z,24.30
2023-02-16T01:26:12.726Z,22.30
2023-02-16T01:29:16.008Z,19.47
2023-02-16T01:32:17.740Z,20.80
2023-02-16T01:35:19.443Z,20.07
2023-02-16T01:38:22.384Z,21.13
2023-02-16T01:41:27.035Z,22.67
2023-02-16T01:44:31.886Z,21.07
2023-02-16T01:47:39.419Z,30.30
2023-02-16T01:51:04.267Z,21.47
2023-02-16T01:54:30.604Z,23.63
2023-02-16T01:57:32.223Z,20.67
2023-02-16T02:00:49.195Z,22.27
2023-02-16T02:04:09.380Z,20.67
2023-02-16T02:07:14.403Z,21.60
2023-02-16T02:10:21.254Z,22.57
2023-02-16T02:13:34.335Z,21.23
2023-02-16T02:16:36.205Z,23.00
2023-02-16T02:19:47.989Z,26.00
2023-02-16T02:23:27.093Z,26.83
2023-02-16T02:26:47.660Z,26.87
2023-02-16T02:29:50.280Z,24.03
2023-02-16T02:32:55.743Z,19.60
2023-02-16T02:36:00.549Z,20.97
2023-02-16T02:39:24.888Z,20.00
2023-02-16T02:42:51.735Z,20.97
2023-02-16T02:46:03.807Z,19.90
2023-02-16T02:49:05.461Z,21.37
2023-02-16T02:52:07.239Z,18.30
2023-02-16T02:55:28.330Z,18.40
2023-02-16T02:58:50.651Z,18.83
2023-02-16T03:01:55.158Z,16.23
2023-02-16T03:04:57.620Z,19.83
2023-02-16T03:08:06.609Z,18.77
2023-02-16T03:11:53.266Z,19.77
2023-02-16T03:14:56.458Z,20.10
2023-02-16T03:18:17.889Z,21.00
2023-02-16T03:21:38.166Z,24.20
2023-02-16T03:24:58.296Z,21.90
2023-02-16T03:28:19.951Z,23.23
2023-02-16T03:31:23.739Z,23.37
2023-02-16T03:34:26.009Z,23.23
2023-02-16T03:37:27.715Z,22.10
2023-02-16T03:40:33.303Z,21.97
2023-02-16T03:43:34.937Z,22.30
2023-02-16T03:46:36.552Z,20.27
2023-02-16T03:49:38.131Z,21.20
2023-02-16T03:52:39.719Z,24.00
2023-02-16T03:55:42.698Z,21.77
2023-02-16T03:58:44.246Z,24.03
2023-02-16T04:01:45.963Z,25.00
2023-02-16T04:04:47.576Z,25.97
2023-02-16T04:07:49.236Z,23.80
2023-02-16T04:10:50.931Z,22.93
2023-02-16T04:13:52.647Z,24.47
2023-02-16T04:16:56.041Z,24.20
2023-02-16T04:19:57.648Z,26.33
2023-02-16T04:22:59.264Z,26.00
2023-02-16T04:26:00.959Z,24.87
2023-02-16T04:29:02.667Z,24.37
2023-02-16T04:32:04.913Z,24.93
2023-02-16T04:35:07.260Z,25.23
2023-02-16T04:38:08.943Z,21.93
2023-02-16T04:41:10.578Z,22.20
2023-02-16T04:44:12.264Z,24.97
2023-02-16T04:47:14.348Z,18.27
2023-02-16T04:50:16.171Z,19.60
2023-02-16T04:53:17.914Z,25.63
2023-02-16T04:56:19.664Z,28.30
2023-02-16T04:59:21.353Z,26.73
2023-02-16T05:02:22.938Z,25.27
2023-02-16T05:05:24.643Z,24.17
2023-02-16T05:08:26.485Z,24.03
2023-02-16T05:11:46.872Z,25.23
2023-02-16T05:14:48.715Z,29.50
2023-02-16T05:17:50.529Z,24.73
2023-02-16T05:21:10.684Z,27.53
2023-02-16T05:24:15.743Z,28.07
2023-02-16T05:27:18.871Z,27.90
2023-02-16T05:30:20.907Z,30.27
2023-02-16T05:33:22.668Z,28.90
2023-02-16T05:36:24.578Z,26.13
2023-02-16T05:39:26.307Z,29.53
2023-02-16T05:42:27.946Z,28.67
2023-02-16T05:45:29.664Z,30.00
2023-02-16T05:48:31.456Z,30.40
2023-02-16T05:51:33.432Z,26.37
2023-02-16T05:54:35.124Z,26.90
2023-02-16T05:57:36.758Z,29.03
2023-02-16T06:00:39.673Z,28.33
2023-02-16T06:03:41.466Z,28.80
2023-02-16T06:06:44.059Z,34.30
2023-02-16T06:09:45.634Z,32.17
2023-02-16T06:12:47.236Z,43.37
2023-02-16T06:15:51.428Z,43.77
2023-02-16T06:18:53.912Z,36.83
2023-02-16T06:21:55.561Z,34.37
2023-02-16T06:24:57.155Z,33.90
2023-02-16T06:27:58.749Z,28.73
2023-02-16T06:31:00.473Z,33.23
2023-02-16T06:34:03.825Z,38.03
2023-02-16T06:37:05.580Z,32.50
2023-02-16T06:40:09.980Z,29.27
2023-02-16T06:43:11.527Z,29.23
2023-02-16T06:46:13.185Z,31.70
2023-02-16T06:49:18.126Z,39.10
2023-02-16T06:52:20.188Z,37.93
2023-02-16T06:55:21.859Z,47.53
2023-02-16T06:58:23.507Z,59.30
2023-02-16T07:01:26.176Z,31.17
2023-02-16T07:04:27.947Z,34.00
2023-02-16T07:07:29.689Z,39.40
2023-02-16T07:10:43.922Z,26.20
2023-02-16T07:13:51.177Z,30.63
2023-02-16T07:16:52.828Z,25.57
2023-02-16T07:19:54.703Z,29.73
2023-02-16T07:22:56.459Z,26.53
2023-02-16T07:25:58.190Z,29.23
2023-02-16T07:28:59.844Z,30.13
2023-02-16T07:32:02.277Z,25.90
2023-02-16T07:35:04.420Z,22.47
2023-02-16T07:38:06.235Z,24.87
2023-02-16T07:41:09.889Z,28.10
2023-02-16T07:44:11.894Z,38.43
2023-02-16T07:47:14.533Z,47.67
2023-02-16T07:50:16.617Z,41.93
2023-02-16T07:53:18.525Z,39.83
2023-02-16T07:56:24.836Z,38.77
2023-02-16T07:59:26.509Z,47.27
2023-02-16T08:02:28.272Z,42.50
2023-02-16T08:05:30.032Z,50.40
2023-02-16T08:08:31.843Z,51.43
2023-02-16T08:11:33.468Z,67.53
2023-02-16T08:14:35.114Z,57.87
2023-02-16T08:17:36.812Z,55.57
2023-02-16T08:20:57.680Z,61.30
2023-02-16T08:24:00.209Z,60.63
2023-02-16T08:27:05.243Z,53.87
2023-02-16T08:30:12.668Z,55.83
2023-02-16T08:33:14.377Z,67.37
2023-02-16T08:36:35.316Z,64.10
2023-02-16T08:39:37.130Z,38.63
2023-02-16T08:42:38.772Z,91.53
2023-02-16T08:45:44.249Z,91.37
2023-02-16T08:48:45.902Z,87.53
2023-02-16T08:51:48.783Z,41.03
2023-02-16T08:54:50.496Z,41.03
2023-02-16T08:57:52.096Z,40.43
2023-02-16T09:00:54.096Z,43.83
2023-02-16T09:03:55.751Z,44.27
2023-02-16T09:06:58.498Z,37.67
2023-02-16T09:10:00.169Z,38.07
2023-02-16T09:13:01.980Z,36.57
2023-02-16T09:16:05.399Z,35.93
2023-02-16T09:19:07.460Z,34.63
2023-02-16T09:22:09.060Z,39.10
2023-02-16T09:25:11.455Z,45.23
2023-02-16T09:28:13.895Z,35.23
2023-02-16T09:31:27.320Z,34.93
2023-02-16T09:34:29.960Z,33.17
2023-02-16T09:37:33.090Z,31.13
2023-02-16T09:40:36.245Z,33.63
2023-02-16T09:44:10.445Z,28.70
2023-02-16T09:47:21.266Z,25.67
2023-02-16T09:50:50.223Z,27.23
2023-02-16T09:53:50.678Z,27.27
2023-02-16T09:56:56.345Z,25.83
2023-02-16T10:00:07.501Z,28.03
2023-02-16T10:03:13.325Z,25.17
2023-02-16T10:06:31.111Z,25.13
2023-02-16T10:09:33.442Z,26.70
2023-02-16T10:12:40.232Z,26.73
2023-02-16T10:15:44.037Z,24.80
2023-02-16T10:18:49.446Z,26.60
2023-02-16T10:21:54.050Z,24.47
2023-02-16T10:24:59.723Z,27.00
2023-02-16T10:28:08.277Z,25.73
2023-02-16T10:31:15.749Z,23.90
2023-02-16T10:34:21.369Z,24.77
2023-02-16T10:37:27.550Z,22.97
2023-02-16T10:40:32.029Z,22.67
2023-02-16T10:43:34.186Z,24.07
2023-02-16T10:46:38.997Z,20.13
2023-02-16T10:49:40.841Z,20.57
2023-02-16T10:52:42.648Z,19.13
2023-02-16T10:55:44.482Z,20.93
2023-02-16T10:58:46.904Z,20.30
2023-02-16T11:01:50.413Z,20.30
2023-02-16T11:04:53.485Z,17.90
2023-02-16T11:08:01.741Z,17.03
2023-02-16T11:11:09.413Z,21.47
2023-02-16T11:14:30.449Z,15.43
2023-02-16T11:17:32.899Z,15.03
2023-02-16T11:20:34.706Z,14.03
2023-02-16T11:23:40.769Z,11.10
2023-02-16T11:26:42.962Z,12.30
2023-02-16T11:29:44.791Z,11.23
2023-02-16T11:32:46.525Z,10.63
2023-02-16T11:35:48.601Z,13.87
2023-02-16T11:38:58.291Z,12.07
2023-02-16T11:42:01.282Z,12.20
2023-02-16T11:45:03.967Z,12.07
2023-02-16T11:48:12.435Z,13.70
2023-02-16T11:51:19.261Z,13.20
2023-02-16T11:54:20.972Z,14.77
2023-02-16T11:57:23.797Z,14.47
2023-02-16T12:00:26.876Z,10.87
2023-02-16T12:03:31.103Z,11.77
2023-02-16T12:06:36.211Z,12.90
2023-02-16T12:09:56.945Z,18.57
2023-02-16T12:13:24.896Z,12.50
2023-02-16T12:16:41.967Z,13.37
2023-02-16T12:19:43.662Z,11.33
2023-02-16T12:22:49.943Z,11.37
2023-02-16T12:25:51.531Z,11.83
2023-02-16T12:29:11.714Z,13.67
2023-02-16T12:32:16.140Z,15.00
2023-02-16T12:35:33.663Z,13.77
2023-02-16T12:38:44.656Z,14.33
2023-02-16T12:41:52.495Z,12.63
2023-02-16T12:44:56.237Z,12.00
2023-02-16T12:47:59.246Z,12.03
2023-02-16T12:51:02.822Z,11.20
2023-02-16T12:54:10.585Z,10.93
2023-02-16T12:57:17.542Z,10.10
2023-02-16T13:00:21.810Z,10.20
2023-02-16T13:03:32.598Z,10.17
2023-02-16T13:06:41.148Z,10.93
2023-02-16T13:09:42.764Z,13.33
2023-02-16T13:12:50.399Z,9.37
2023-02-16T13:15:55.450Z,11.00
2023-02-16T13:18:57.241Z,9.60
2023-02-16T13:21:58.920Z,11.03
2023-02-16T13:25:22.220Z,9.77
2023-02-16T13:28:42.971Z,10.87
2023-02-16T13:32:03.710Z,9.87
2023-02-16T13:35:14.836Z,11.37
2023-02-16T13:38:17.780Z,9.53
2023-02-16T13:41:45.001Z,11.43
2023-02-16T13:44:51.992Z,10.00
2023-02-16T13:47:54.389Z,10.87
2023-02-16T13:51:04.473Z,12.77
2023-02-16T13:54:07.219Z,13.07
2023-02-16T13:57:18.480Z,12.00
2023-02-16T14:00:28.496Z,11.30
2023-02-16T14:03:38.180Z,10.40
2023-02-16T14:06:42.720Z,10.33
2023-02-16T14:09:47.793Z,10.83
2023-02-16T14:12:50.048Z,10.43
2023-02-16T14:15:52.756Z,13.37
2023-02-16T14:18:54.466Z,16.33
2023-02-16T14:21:56.117Z,14.07
2023-02-16T14:24:59.908Z,13.43
2023-02-16T14:28:07.083Z,18.17
2023-02-16T14:31:14.886Z,12.80
2023-02-16T14:34:31.317Z,13.07
2023-02-16T14:37:56.356Z,14.17
2023-02-16T14:40:59.541Z,16.00
2023-02-16T14:44:04.189Z,14.40
2023-02-16T14:47:05.732Z,16.97
2023-02-16T14:50:15.284Z,16.23
2023-02-16T14:53:43.334Z,18.50
2023-02-16T14:56:57.328Z,20.27
2023-02-16T15:00:04.826Z,21.93
2023-02-16T15:03:22.258Z,19.43
2023-02-16T15:06:28.376Z,23.93
2023-02-16T15:09:31.548Z,27.20
2023-02-16T15:12:34.548Z,22.63
2023-02-16T15:15:47.197Z,26.27
2023-02-16T15:18:50.169Z,20.03
2023-02-16T15:22:10.653Z,18.60
2023-02-16T15:25:27.824Z,19.80
2023-02-16T15:28:30.948Z,20.93
2023-02-16T15:31:34.153Z,16.53
2023-02-16T15:34:36.212Z,22.83
2023-02-16T15:37:40.427Z,40.60
2023-02-16T15:40:42.216Z,31.77
2023-02-16T15:43:45.413Z,37.00
2023-02-16T15:46:48.361Z,40.77
2023-02-16T15:49:50.558Z,38.83
2023-02-16T15:52:54.102Z,40.33
2023-02-16T15:55:56.119Z,40.43
2023-02-16T15:58:58.534Z,42.93
2023-02-16T16:02:09.977Z,45.53
2023-02-16T16:05:22.202Z,49.97
2023-02-16T16:08:26.282Z,47.90
2023-02-16T16:11:28.255Z,48.87
2023-02-16T16:14:31.217Z,48.50
2023-02-16T16:17:34.182Z,51.07
2023-02-16T16:20:37.911Z,50.23
2023-02-16T16:23:39.556Z,48.70
2023-02-16T16:26:50.528Z,51.33
2023-02-16T16:29:52.152Z,52.87
2023-02-16T16:32:59.883Z,43.63
2023-02-16T16:36:10.771Z,56.03
2023-02-16T16:39:18.740Z,34.93
2023-02-16T16:42:23.711Z,52.40
2023-02-16T16:45:34.906Z,34.83
2023-02-16T16:48:37.322Z,36.70
2023-02-16T16:51:40.489Z,33.17
2023-02-16T16:54:42.675Z,36.07
2023-02-16T16:57:44.307Z,36.83
2023-02-16T17:00:45.967Z,43.93
2023-02-16T17:03:47.644Z,44.37
2023-02-16T17:06:49.332Z,42.70
2023-02-16T17:09:51.026Z,45.37
2023-02-16T17:12:54.850Z,41.33
2023-02-16T17:16:04.739Z,43.13
2023-02-16T17:19:06.488Z,40.90
2023-02-16T17:22:18.787Z,41.07
2023-02-16T17:25:20.679Z,43.73
2023-02-16T17:28:22.426Z,53.10
2023-02-16T17:31:24.178Z,48.73
2023-02-16T17:34:29.525Z,41.93
2023-02-16T17:37:35.229Z,40.27
2023-02-16T17:40:37.496Z,44.20
2023-02-16T17:43:39.120Z,43.63
2023-02-16T17:46:40.766Z,35.33
2023-02-16T17:49:42.555Z,36.37
2023-02-16T17:52:44.758Z,36.50
2023-02-16T17:55:47.465Z,30.23
2023-02-16T17:58:49.549Z,31.23
2023-02-16T18:01:51.157Z,34.47
2023-02-16T18:04:52.789Z,37.53
2023-02-16T18:07:55.418Z,30.23
2023-02-16T18:11:02.030Z,32.37
2023-02-16T18:14:03.713Z,45.37
2023-02-16T18:17:06.919Z,32.83
2023-02-16T18:20:10.296Z,35.60
2023-02-16T18:23:12.093Z,28.33
2023-02-16T18:26:14.801Z,27.20
2023-02-16T18:29:16.909Z,37.13
2023-02-16T18:32:18.535Z,51.83
2023-02-16T18:35:20.262Z,42.37
2023-02-16T18:38:22.448Z,30.67
2023-02-16T18:41:24.131Z,26.23
2023-02-16T18:44:25.820Z,34.07
2023-02-16T18:47:27.439Z,29.47
2023-02-16T18:50:29.088Z,29.47
2023-02-16T18:53:30.738Z,34.70
2023-02-16T18:56:35.422Z,31.30
2023-02-16T18:59:36.999Z,29.53
2023-02-16T19:02:41.067Z,37.23
2023-02-16T19:05:42.772Z,35.07
2023-02-16T19:08:45.279Z,23.60
2023-02-16T19:11:47.052Z,24.37
2023-02-16T19:14:48.693Z,26.97
2023-02-16T19:17:50.542Z,40.17
2023-02-16T19:20:52.273Z,30.57
2023-02-16T19:23:53.819Z,28.10
2023-02-16T19:26:58.412Z,27.07
2023-02-16T19:30:00.134Z,25.17
2023-02-16T19:33:01.957Z,28.07
2023-02-16T19:36:08.637Z,27.97
2023-02-16T19:39:12.135Z,23.50
2023-02-16T19:42:13.774Z,26.27
2023-02-16T19:45:25.771Z,24.03
2023-02-16T19:48:31.985Z,20.90
2023-02-16T19:51:33.964Z,20.73
2023-02-16T19:54:35.958Z,18.87
2023-02-16T19:57:37.543Z,18.23
2023-02-16T20:00:39.157Z,20.83
2023-02-16T20:03:41.107Z,25.13
2023-02-16T20:06:43.296Z,24.13
2023-02-16T20:09:44.965Z,21.90
2023-02-16T20:12:46.578Z,22.23
2023-02-16T20:15:48.230Z,17.87
2023-02-16T20:18:49.835Z,26.10
2023-02-16T20:21:51.508Z,19.83
2023-02-16T20:24:53.132Z,19.00
2023-02-16T20:27:56.036Z,19.50
2023-02-16T20:30:57.734Z,18.73
2023-02-16T20:33:59.441Z,22.23
2023-02-16T20:37:01.146Z,21.27
2023-02-16T20:40:02.835Z,23.83
2023-02-16T20:43:04.431Z,25.80
2023-02-16T20:46:07.433Z,22.93
2023-02-16T20:49:09.369Z,25.03
2023-02-16T20:52:11.399Z,25.60
2023-02-16T20:55:13.367Z,24.20
2023-02-16T20:58:15.290Z,22.00
2023-02-16T21:01:16.923Z,22.10
2023-02-16T21:04:18.795Z,22.80
2023-02-16T21:07:20.426Z,19.97
2023-02-16T21:10:22.057Z,23.40
2023-02-16T21:13:23.688Z,25.73
2023-02-16T21:16:25.559Z,20.63
2023-02-16T21:19:27.169Z,16.20
2023-02-16T21:22:28.799Z,15.23
2023-02-16T21:25:31.181Z,17.13
2023-02-16T21:28:33.600Z,19.67
2023-02-16T21:31:35.250Z,18.33
2023-02-16T21:34:37.065Z,20.40
2023-02-16T21:37:39.271Z,18.10
2023-02-16T21:40:59.443Z,17.77
2023-02-16T21:44:05.350Z,16.90
2023-02-16T21:47:25.587Z,15.63
2023-02-16T21:50:28.046Z,13.93
2023-02-16T21:53:30.607Z,17.57
2023-02-16T21:56:36.918Z,15.27
2023-02-16T21:59:38.551Z,15.43
2023-02-16T22:02:40.435Z,14.87
2023-02-16T22:05:42.262Z,17.07
2023-02-16T22:08:43.897Z,17.30
2023-02-16T22:11:45.999Z,16.67
2023-02-16T22:14:47.711Z,15.87
2023-02-16T22:17:49.576Z,14.83
2023-02-16T22:20:51.218Z,16.70
2023-02-16T22:23:53.107Z,19.00
2023-02-16T22:26:54.725Z,16.83
2023-02-16T22:29:56.355Z,14.10
2023-02-16T22:32:57.958Z,15.20
2023-02-16T22:36:05.580Z,14.50
2023-02-16T22:39:07.673Z,13.37
2023-02-16T22:42:09.430Z,11.50
2023-02-16T22:45:11.066Z,13.13
2023-02-16T22:48:12.694Z,13.20
2023-02-16T22:51:15.158Z,13.57
2023-02-16T22:54:16.778Z,13.43
2023-02-16T22:57:18.808Z,12.70
2023-02-16T23:00:20.481Z,11.13
2023-02-16T23:03:22.222Z,11.30
2023-02-16T23:06:25.632Z,12.40
2023-02-16T23:09:27.286Z,13.30
2023-02-16T23:12:28.900Z,13.17
2023-02-16T23:15:30.635Z,12.90
2023-02-16T23:18:32.323Z,13.53
2023-02-16T23:21:33.959Z,13.97
2023-02-16T23:24:35.544Z,13.53
2023-02-16T23:27:37.216Z,14.20
2023-02-16T23:30:41.674Z,15.27
2023-02-16T23:33:43.327Z,10.67
2023-02-16T23:36:45.475Z,13.30
2023-02-16T23:39:47.022Z,12.80
2023-02-16T23:42:48.591Z,9.13
2023-02-16T23:45:50.263Z,10.47
2023-02-16T23:48:51.916Z,13.63
2023-02-16T23:51:53.531Z,11.00
2023-02-16T23:54:55.155Z,10.87
2023-02-16T23:57:56.868Z,10.20
